createdAt,value
2023-03-23T16:00:25.867Z,16.20
2023-03-23T16:03:16.387Z,16.20
2023-03-23T16:06:04.101Z,16.00
2023-03-23T16:08:54.230Z,15.80
2023-03-23T16:11:42.239Z,15.60
2023-03-23T16:14:28.894Z,15.60
2023-03-23T16:17:21.729Z,15.50
2023-03-23T16:20:14.265Z,15.40
2023-03-23T16:23:01.284Z,15.20
2023-03-23T16:25:47.818Z,15.20
2023-03-23T16:28:34.646Z,15.20
2023-03-23T16:31:21.021Z,15.20
2023-03-23T16:34:09.819Z,15.20
2023-03-23T16:36:56.476Z,15.20
2023-03-23T16:39:43.043Z,15.20
2023-03-23T16:42:29.626Z,15.10
2023-03-23T16:45:17.291Z,14.90
2023-03-23T16:48:05.283Z,14.80
2023-03-23T16:50:54.509Z,14.80
2023-03-23T16:53:41.014Z,14.90
2023-03-23T16:56:27.474Z,15.00
2023-03-23T16:59:14.105Z,15.00
2023-03-23T17:02:03.756Z,15.00
2023-03-23T17:04:50.948Z,15.00
2023-03-23T17:07:39.069Z,15.00
2023-03-23T17:10:27.979Z,14.90
2023-03-23T17:13:14.926Z,14.90
2023-03-23T17:16:01.645Z,15.00
2023-03-23T17:18:48.009Z,15.00
2023-03-23T17:21:35.302Z,15.10
2023-03-23T17:24:23.226Z,15.20
2023-03-23T17:27:09.697Z,15.20
2023-03-23T17:29:56.263Z,15.30
2023-03-23T17:32:42.734Z,15.40
2023-03-23T17:35:29.827Z,15.40
2023-03-23T17:38:17.756Z,15.40
2023-03-23T17:41:07.991Z,15.30
2023-03-23T17:43:54.886Z,15.20
2023-03-23T17:46:41.338Z,15.10
2023-03-23T17:49:30.140Z,15.10
2023-03-23T17:52:16.970Z,15.10
2023-03-23T17:55:03.654Z,15.20
2023-03-23T17:57:51.569Z,15.20
2023-03-23T18:00:38.457Z,15.30
2023-03-23T18:03:26.258Z,15.30
2023-03-23T18:06:13.243Z,15.20
2023-03-23T18:08:59.674Z,15.20
2023-03-23T18:11:46.335Z,15.10
2023-03-23T18:14:34.396Z,15.10
2023-03-23T18:17:21.007Z,15.00
2023-03-23T18:20:09.661Z,15.00
2023-03-23T18:22:56.328Z,15.00
2023-03-23T18:25:43.132Z,15.00
2023-03-23T18:28:30.545Z,15.00
2023-03-23T18:31:20.105Z,15.10
2023-03-23T18:34:07.607Z,15.10
2023-03-23T18:36:54.412Z,15.20
2023-03-23T18:39:40.807Z,15.20
2023-03-23T18:42:27.764Z,15.20
2023-03-23T18:45:14.622Z,15.20
2023-03-23T18:48:03.819Z,15.20
2023-03-23T18:50:51.286Z,15.20
2023-03-23T18:53:37.832Z,15.30
2023-03-23T18:56:24.324Z,15.20
2023-03-23T18:59:11.280Z,15.10
2023-03-23T19:01:57.786Z,15.00
2023-03-23T19:04:45.598Z,15.00
2023-03-23T19:07:32.064Z,15.10
2023-03-23T19:10:20.778Z,15.00
2023-03-23T19:13:08.660Z,15.00
2023-03-23T19:15:55.180Z,15.00
2023-03-23T19:18:42.317Z,15.00
2023-03-23T19:21:31.910Z,15.10
2023-03-23T19:24:19.238Z,15.00
2023-03-23T19:27:06.297Z,14.80
2023-03-23T19:29:52.850Z,14.70
2023-03-23T19:32:39.256Z,14.50
2023-03-23T19:35:26.552Z,14.50
2023-03-23T19:38:14.642Z,14.40
2023-03-23T19:41:03.806Z,14.40
2023-03-23T19:43:52.565Z,14.20
2023-03-23T19:46:39.229Z,14.10
2023-03-23T19:49:26.701Z,14.00
2023-03-23T19:52:14.955Z,13.90
2023-03-23T19:55:04.602Z,13.70
2023-03-23T19:57:51.599Z,13.70
2023-03-23T20:00:38.839Z,13.60
2023-03-23T20:03:26.070Z,13.60
2023-03-23T20:06:15.202Z,13.60
2023-03-23T20:09:01.866Z,13.60
2023-03-23T20:11:50.499Z,13.50
2023-03-23T20:14:38.094Z,13.50
2023-03-23T20:17:25.124Z,13.50
2023-03-23T20:20:12.089Z,13.50
2023-03-23T20:22:59.113Z,13.60
2023-03-23T20:25:46.235Z,13.70
2023-03-23T20:28:35.742Z,13.70
2023-03-23T20:31:26.403Z,13.90
2023-03-23T20:34:17.091Z,13.80
2023-03-23T20:37:04.193Z,13.90
2023-03-23T20:39:51.291Z,14.00
2023-03-23T20:42:38.214Z,14.20
2023-03-23T20:45:26.087Z,14.30
2023-03-23T20:48:12.481Z,14.40
2023-03-23T20:51:00.308Z,14.40
2023-03-23T20:53:46.733Z,14.50
2023-03-23T20:56:34.549Z,14.50
2023-03-23T20:59:21.272Z,14.50
2023-03-23T21:02:09.757Z,14.50
2023-03-23T21:04:58.127Z,14.60
2023-03-23T21:07:44.939Z,14.60
2023-03-23T21:10:31.739Z,14.60
2023-03-23T21:13:19.382Z,14.60
2023-03-23T21:16:07.565Z,14.60
2023-03-23T21:18:55.811Z,14.60
2023-03-23T21:21:56.038Z,14.60
2023-03-23T21:24:46.332Z,14.50
2023-03-23T21:27:33.086Z,14.60
2023-03-23T21:30:20.207Z,14.60
2023-03-23T21:33:08.411Z,14.60
2023-03-23T21:35:56.828Z,14.60
2023-03-23T21:38:44.624Z,14.50
2023-03-23T21:41:42.629Z,14.60
2023-03-23T21:44:29.678Z,14.50
2023-03-23T21:47:16.127Z,14.60
2023-03-23T21:50:04.892Z,14.60
2023-03-23T21:52:53.888Z,14.60
2023-03-23T21:55:44.841Z,14.60
2023-03-23T21:58:32.396Z,14.60
2023-03-23T22:01:19.540Z,14.50
2023-03-23T22:04:07.569Z,14.50
2023-03-23T22:06:54.500Z,14.50
2023-03-23T22:09:45.080Z,14.60
2023-03-23T22:12:31.656Z,14.60
2023-03-23T22:15:18.822Z,14.70
2023-03-23T22:18:06.059Z,14.60
2023-03-23T22:20:52.815Z,14.60
2023-03-23T22:23:40.314Z,14.60
2023-03-23T22:26:29.508Z,14.70
2023-03-23T22:29:17.070Z,14.60
2023-03-23T22:32:03.822Z,14.60
2023-03-23T22:34:51.999Z,14.60
2023-03-23T22:37:38.701Z,14.60
2023-03-23T22:40:25.134Z,14.50
2023-03-23T22:43:13.303Z,14.50
2023-03-23T22:46:00.202Z,14.50
2023-03-23T22:48:47.248Z,14.60
2023-03-23T22:51:34.047Z,14.60
2023-03-23T22:54:21.164Z,14.60
2023-03-23T22:57:08.402Z,14.60
2023-03-23T22:59:56.597Z,14.60
2023-03-23T23:02:43.652Z,14.60
2023-03-23T23:05:30.503Z,14.60
2023-03-23T23:08:18.294Z,14.60
2023-03-23T23:11:05.670Z,14.50
2023-03-23T23:13:52.785Z,14.50
2023-03-23T23:16:41.195Z,14.50
2023-03-23T23:19:27.804Z,14.40
2023-03-23T23:22:19.413Z,14.30
2023-03-23T23:25:07.209Z,14.20
2023-03-23T23:27:53.778Z,14.10
2023-03-23T23:30:41.324Z,14.10
2023-03-23T23:33:29.674Z,13.90
2023-03-23T23:36:16.370Z,13.90
2023-03-23T23:39:05.729Z,13.70
2023-03-23T23:41:52.118Z,13.70
2023-03-23T23:44:39.547Z,13.70
2023-03-23T23:47:26.096Z,13.60
2023-03-23T23:50:15.697Z,13.60
2023-03-23T23:53:02.347Z,13.60
2023-03-23T23:55:49.133Z,13.60
2023-03-23T23:58:36.163Z,13.60
